sensor_id;sensor_type;location;lat;lon;timestamp;temperature;humidity
4453;DHT22;2239;48.152;11.584;2023-04-03T00:01:24;2.50;99.90
4453;DHT22;2239;48.152;11.584;2023-04-03T00:03:49;2.40;99.90
4453;DHT22;2239;48.152;11.584;2023-04-03T00:06:17;2.40;99.90
4453;DHT22;2239;48.152;11.584;2023-04-03T00:08:43;2.40;99.90
4453;DHT22;2239;48.152;11.584;2023-04-03T00:11:09;2.40;99.90
4453;DHT22;2239;48.152;11.584;2023-04-03T00:13:36;2.50;99.90
4453;DHT22;2239;48.152;11.584;2023-04-03T00:16:02;2.40;99.90
4453;DHT22;2239;48.152;11.584;2023-04-03T00:18:28;2.40;99.90
4453;DHT22;2239;48.152;11.584;2023-04-03T00:20:54;2.40;99.90
4453;DHT22;2239;48.152;11.584;2023-04-03T00:23:20;2.40;99.90
4453;DHT22;2239;48.152;11.584;2023-04-03T00:25:45;2.40;99.90
4453;DHT22;2239;48.152;11.584;2023-04-03T00:28:11;2.40;99.90
4453;DHT22;2239;48.152;11.584;2023-04-03T00:30:37;2.40;99.90
4453;DHT22;2239;48.152;11.584;2023-04-03T00:33:02;2.50;99.90
4453;DHT22;2239;48.152;11.584;2023-04-03T00:35:29;2.40;99.90
4453;DHT22;2239;48.152;11.584;2023-04-03T00:37:55;2.40;99.90
4453;DHT22;2239;48.152;11.584;2023-04-03T00:40:25;2.40;99.90
4453;DHT22;2239;48.152;11.584;2023-04-03T00:42:55;2.40;99.90
4453;DHT22;2239;48.152;11.584;2023-04-03T00:45:34;2.40;99.90
4453;DHT22;2239;48.152;11.584;2023-04-03T00:48:02;2.50;99.90
4453;DHT22;2239;48.152;11.584;2023-04-03T00:50:31;2.40;99.90
4453;DHT22;2239;48.152;11.584;2023-04-03T00:52:57;2.40;99.90
4453;DHT22;2239;48.152;11.584;2023-04-03T00:55:24;2.40;99.90
4453;DHT22;2239;48.152;11.584;2023-04-03T00:57:51;2.40;99.90
4453;DHT22;2239;48.152;11.584;2023-04-03T01:00:20;2.40;99.90
4453;DHT22;2239;48.152;11.584;2023-04-03T01:02:48;2.40;99.90
4453;DHT22;2239;48.152;11.584;2023-04-03T01:05:16;2.50;99.90
4453;DHT22;2239;48.152;11.584;2023-04-03T01:07:42;2.40;99.90
4453;DHT22;2239;48.152;11.584;2023-04-03T01:10:11;2.50;99.90
4453;DHT22;2239;48.152;11.584;2023-04-03T01:12:42;2.50;99.90
4453;DHT22;2239;48.152;11.584;2023-04-03T01:15:15;2.50;99.90
4453;DHT22;2239;48.152;11.584;2023-04-03T01:25:40;2.60;99.90
4453;DHT22;2239;48.152;11.584;2023-04-03T01:28:12;2.50;99.90
4453;DHT22;2239;48.152;11.584;2023-04-03T01:30:58;2.50;99.90
4453;DHT22;2239;48.152;11.584;2023-04-03T01:33:26;2.50;99.90
4453;DHT22;2239;48.152;11.584;2023-04-03T01:35:51;2.50;99.90
4453;DHT22;2239;48.152;11.584;2023-04-03T01:38:17;2.50;99.90
4453;DHT22;2239;48.152;11.584;2023-04-03T01:40:42;2.50;99.90
4453;DHT22;2239;48.152;11.584;2023-04-03T01:43:08;2.50;99.90
4453;DHT22;2239;48.152;11.584;2023-04-03T01:45:34;2.50;99.90
4453;DHT22;2239;48.152;11.584;2023-04-03T01:48:00;2.60;99.90
4453;DHT22;2239;48.152;11.584;2023-04-03T01:50:25;2.60;99.90
4453;DHT22;2239;48.152;11.584;2023-04-03T01:52:51;2.60;99.90
4453;DHT22;2239;48.152;11.584;2023-04-03T01:55:16;2.60;99.90
4453;DHT22;2239;48.152;11.584;2023-04-03T01:57:42;2.50;99.90
4453;DHT22;2239;48.152;11.584;2023-04-03T02:00:08;2.50;99.90
4453;DHT22;2239;48.152;11.584;2023-04-03T02:02:34;2.50;99.90
4453;DHT22;2239;48.152;11.584;2023-04-03T02:05:00;2.50;99.90
4453;DHT22;2239;48.152;11.584;2023-04-03T02:07:27;2.50;99.90
4453;DHT22;2239;48.152;11.584;2023-04-03T02:09:53;2.50;99.90
4453;DHT22;2239;48.152;11.584;2023-04-03T02:12:18;2.60;99.90
4453;DHT22;2239;48.152;11.584;2023-04-03T02:14:44;2.60;99.90
4453;DHT22;2239;48.152;11.584;2023-04-03T02:17:09;2.60;99.90
4453;DHT22;2239;48.152;11.584;2023-04-03T02:19:35;2.50;99.90
4453;DHT22;2239;48.152;11.584;2023-04-03T02:22:05;2.50;99.90
4453;DHT22;2239;48.152;11.584;2023-04-03T02:24:31;2.60;99.90
4453;DHT22;2239;48.152;11.584;2023-04-03T02:26:57;2.60;99.90
4453;DHT22;2239;48.152;11.584;2023-04-03T02:29:22;2.50;99.90
4453;DHT22;2239;48.152;11.584;2023-04-03T02:31:48;2.50;99.90
4453;DHT22;2239;48.152;11.584;2023-04-03T02:34:14;2.50;99.90
4453;DHT22;2239;48.152;11.584;2023-04-03T02:36:40;2.50;99.90
4453;DHT22;2239;48.152;11.584;2023-04-03T02:39:05;2.50;99.90
4453;DHT22;2239;48.152;11.584;2023-04-03T02:41:31;2.50;99.90
4453;DHT22;2239;48.152;11.584;2023-04-03T02:44:04;2.50;99.90
4453;DHT22;2239;48.152;11.584;2023-04-03T02:46:30;2.50;99.90
4453;DHT22;2239;48.152;11.584;2023-04-03T02:48:56;2.60;99.90
4453;DHT22;2239;48.152;11.584;2023-04-03T02:51:21;2.60;99.90
4453;DHT22;2239;48.152;11.584;2023-04-03T02:53:48;2.60;99.90
4453;DHT22;2239;48.152;11.584;2023-04-03T02:56:14;2.60;99.90
4453;DHT22;2239;48.152;11.584;2023-04-03T02:58:40;2.60;99.90
4453;DHT22;2239;48.152;11.584;2023-04-03T03:01:05;2.60;99.90
4453;DHT22;2239;48.152;11.584;2023-04-03T03:03:31;2.50;99.90
4453;DHT22;2239;48.152;11.584;2023-04-03T03:06:09;2.50;99.90
4453;DHT22;2239;48.152;11.584;2023-04-03T03:08:36;2.50;99.90
4453;DHT22;2239;48.152;11.584;2023-04-03T03:11:02;2.50;99.90
4453;DHT22;2239;48.152;11.584;2023-04-03T03:13:27;2.60;99.90
4453;DHT22;2239;48.152;11.584;2023-04-03T03:15:53;2.50;99.90
4453;DHT22;2239;48.152;11.584;2023-04-03T03:18:19;2.50;99.90
4453;DHT22;2239;48.152;11.584;2023-04-03T03:20:45;2.50;99.90
4453;DHT22;2239;48.152;11.584;2023-04-03T03:23:11;2.50;99.90
4453;DHT22;2239;48.152;11.584;2023-04-03T03:25:40;2.50;99.90
4453;DHT22;2239;48.152;11.584;2023-04-03T03:28:06;2.60;99.90
4453;DHT22;2239;48.152;11.584;2023-04-03T03:30:32;2.60;99.90
4453;DHT22;2239;48.152;11.584;2023-04-03T03:32:58;2.60;99.90
4453;DHT22;2239;48.152;11.584;2023-04-03T03:35:23;2.50;99.90
4453;DHT22;2239;48.152;11.584;2023-04-03T03:37:49;2.50;99.90
4453;DHT22;2239;48.152;11.584;2023-04-03T03:40:17;2.40;99.90
4453;DHT22;2239;48.152;11.584;2023-04-03T03:42:43;2.40;99.90
4453;DHT22;2239;48.152;11.584;2023-04-03T03:45:09;2.50;99.90
4453;DHT22;2239;48.152;11.584;2023-04-03T03:47:35;2.50;99.90
4453;DHT22;2239;48.152;11.584;2023-04-03T03:50:01;2.50;99.90
4453;DHT22;2239;48.152;11.584;2023-04-03T03:52:27;2.50;99.90
4453;DHT22;2239;48.152;11.584;2023-04-03T03:54:52;2.50;99.90
4453;DHT22;2239;48.152;11.584;2023-04-03T03:57:18;2.50;99.90
4453;DHT22;2239;48.152;11.584;2023-04-03T03:59:43;2.50;99.90
4453;DHT22;2239;48.152;11.584;2023-04-03T04:02:10;2.50;99.90
4453;DHT22;2239;48.152;11.584;2023-04-03T04:04:36;2.60;99.90
4453;DHT22;2239;48.152;11.584;2023-04-03T04:07:03;2.50;99.90
4453;DHT22;2239;48.152;11.584;2023-04-03T04:09:28;2.50;99.90
4453;DHT22;2239;48.152;11.584;2023-04-03T04:11:54;2.50;99.90
4453;DHT22;2239;48.152;11.584;2023-04-03T04:14:20;2.60;99.90
4453;DHT22;2239;48.152;11.584;2023-04-03T04:16:47;2.50;99.90
4453;DHT22;2239;48.152;11.584;2023-04-03T04:19:13;2.50;99.90
4453;DHT22;2239;48.152;11.584;2023-04-03T04:21:38;2.50;99.90
4453;DHT22;2239;48.152;11.584;2023-04-03T04:24:05;2.50;99.90
4453;DHT22;2239;48.152;11.584;2023-04-03T04:26:30;2.50;99.90
4453;DHT22;2239;48.152;11.584;2023-04-03T04:28:56;2.40;99.90
4453;DHT22;2239;48.152;11.584;2023-04-03T04:31:21;2.40;99.90
4453;DHT22;2239;48.152;11.584;2023-04-03T04:33:47;2.40;99.90
4453;DHT22;2239;48.152;11.584;2023-04-03T04:36:12;2.40;99.90
4453;DHT22;2239;48.152;11.584;2023-04-03T04:38:40;2.40;99.90
4453;DHT22;2239;48.152;11.584;2023-04-03T04:41:06;2.40;99.90
4453;DHT22;2239;48.152;11.584;2023-04-03T04:43:31;2.40;99.90
4453;DHT22;2239;48.152;11.584;2023-04-03T04:46:04;2.40;99.90
4453;DHT22;2239;48.152;11.584;2023-04-03T04:48:30;2.40;99.90
4453;DHT22;2239;48.152;11.584;2023-04-03T04:50:56;2.40;99.90
4453;DHT22;2239;48.152;11.584;2023-04-03T04:53:21;2.40;99.90
4453;DHT22;2239;48.152;11.584;2023-04-03T04:55:47;2.50;99.90
4453;DHT22;2239;48.152;11.584;2023-04-03T04:58:13;2.50;99.90
4453;DHT22;2239;48.152;11.584;2023-04-03T05:00:38;2.50;99.90
4453;DHT22;2239;48.152;11.584;2023-04-03T05:03:04;2.50;99.90
4453;DHT22;2239;48.152;11.584;2023-04-03T05:05:30;2.50;99.90
4453;DHT22;2239;48.152;11.584;2023-04-03T05:07:55;2.50;99.90
4453;DHT22;2239;48.152;11.584;2023-04-03T05:10:21;2.50;99.90
4453;DHT22;2239;48.152;11.584;2023-04-03T05:12:47;2.50;99.90
4453;DHT22;2239;48.152;11.584;2023-04-03T05:15:12;2.50;99.90
4453;DHT22;2239;48.152;11.584;2023-04-03T05:17:38;2.50;99.90
4453;DHT22;2239;48.152;11.584;2023-04-03T05:20:04;2.50;99.90
4453;DHT22;2239;48.152;11.584;2023-04-03T05:22:30;2.50;99.90
4453;DHT22;2239;48.152;11.584;2023-04-03T05:24:56;2.50;99.90
4453;DHT22;2239;48.152;11.584;2023-04-03T05:27:22;2.50;99.90
4453;DHT22;2239;48.152;11.584;2023-04-03T05:29:52;2.50;99.90
4453;DHT22;2239;48.152;11.584;2023-04-03T05:32:17;2.50;99.90
4453;DHT22;2239;48.152;11.584;2023-04-03T05:34:43;2.50;99.90
4453;DHT22;2239;48.152;11.584;2023-04-03T05:37:09;2.50;99.90
4453;DHT22;2239;48.152;11.584;2023-04-03T05:39:34;2.50;99.90
4453;DHT22;2239;48.152;11.584;2023-04-03T05:42:00;2.50;99.90
4453;DHT22;2239;48.152;11.584;2023-04-03T05:44:26;2.60;99.90
4453;DHT22;2239;48.152;11.584;2023-04-03T05:46:51;2.60;99.90
4453;DHT22;2239;48.152;11.584;2023-04-03T05:49:17;2.60;99.90
4453;DHT22;2239;48.152;11.584;2023-04-03T05:51:43;2.60;99.90
4453;DHT22;2239;48.152;11.584;2023-04-03T05:54:17;2.70;99.90
4453;DHT22;2239;48.152;11.584;2023-04-03T05:56:43;2.70;99.90
4453;DHT22;2239;48.152;11.584;2023-04-03T05:59:09;2.70;99.90
4453;DHT22;2239;48.152;11.584;2023-04-03T06:01:35;2.70;99.90
4453;DHT22;2239;48.152;11.584;2023-04-03T06:04:01;2.70;99.90
4453;DHT22;2239;48.152;11.584;2023-04-03T06:06:46;2.70;99.90
4453;DHT22;2239;48.152;11.584;2023-04-03T06:09:12;2.80;99.90
4453;DHT22;2239;48.152;11.584;2023-04-03T06:11:38;2.80;99.90
4453;DHT22;2239;48.152;11.584;2023-04-03T06:14:04;2.80;99.90
4453;DHT22;2239;48.152;11.584;2023-04-03T06:16:29;2.80;99.90
4453;DHT22;2239;48.152;11.584;2023-04-03T06:18:55;2.80;99.90
4453;DHT22;2239;48.152;11.584;2023-04-03T06:21:21;2.90;99.90
4453;DHT22;2239;48.152;11.584;2023-04-03T06:23:48;2.90;99.90
4453;DHT22;2239;48.152;11.584;2023-04-03T06:26:13;2.90;99.90
4453;DHT22;2239;48.152;11.584;2023-04-03T06:28:39;2.90;99.90
4453;DHT22;2239;48.152;11.584;2023-04-03T06:31:04;3.00;99.90
4453;DHT22;2239;48.152;11.584;2023-04-03T06:33:30;3.00;99.90
4453;DHT22;2239;48.152;11.584;2023-04-03T06:35:57;3.00;99.90
4453;DHT22;2239;48.152;11.584;2023-04-03T06:38:23;3.10;99.90
4453;DHT22;2239;48.152;11.584;2023-04-03T06:40:49;3.10;99.90
4453;DHT22;2239;48.152;11.584;2023-04-03T06:43:14;3.10;99.90
4453;DHT22;2239;48.152;11.584;2023-04-03T06:45:40;3.10;99.90
4453;DHT22;2239;48.152;11.584;2023-04-03T06:48:06;3.10;99.90
4453;DHT22;2239;48.152;11.584;2023-04-03T06:50:32;3.10;99.90
4453;DHT22;2239;48.152;11.584;2023-04-03T06:52:57;3.20;99.90
4453;DHT22;2239;48.152;11.584;2023-04-03T06:55:23;3.20;99.90
4453;DHT22;2239;48.152;11.584;2023-04-03T06:57:49;3.30;99.90
4453;DHT22;2239;48.152;11.584;2023-04-03T07:00:15;3.40;99.90
4453;DHT22;2239;48.152;11.584;2023-04-03T07:02:42;3.40;99.90
4453;DHT22;2239;48.152;11.584;2023-04-03T07:05:07;3.30;99.90
4453;DHT22;2239;48.152;11.584;2023-04-03T07:07:34;3.30;99.90
4453;DHT22;2239;48.152;11.584;2023-04-03T07:10:00;3.30;99.90
4453;DHT22;2239;48.152;11.584;2023-04-03T07:12:26;3.40;99.90
4453;DHT22;2239;48.152;11.584;2023-04-03T07:14:51;3.40;99.90
4453;DHT22;2239;48.152;11.584;2023-04-03T07:17:17;3.40;99.90
4453;DHT22;2239;48.152;11.584;2023-04-03T07:19:43;3.50;99.90
4453;DHT22;2239;48.152;11.584;2023-04-03T07:22:08;3.50;99.90
4453;DHT22;2239;48.152;11.584;2023-04-03T07:24:36;3.50;99.90
4453;DHT22;2239;48.152;11.584;2023-04-03T07:27:02;3.60;99.90
4453;DHT22;2239;48.152;11.584;2023-04-03T07:29:28;3.70;99.90
4453;DHT22;2239;48.152;11.584;2023-04-03T07:31:53;3.80;99.90
4453;DHT22;2239;48.152;11.584;2023-04-03T07:34:20;3.80;99.90
4453;DHT22;2239;48.152;11.584;2023-04-03T07:36:46;4.00;99.90
4453;DHT22;2239;48.152;11.584;2023-04-03T07:39:14;4.00;99.90
4453;DHT22;2239;48.152;11.584;2023-04-03T07:41:40;4.00;99.90
4453;DHT22;2239;48.152;11.584;2023-04-03T07:44:06;4.00;99.90
4453;DHT22;2239;48.152;11.584;2023-04-03T07:46:35;3.90;99.90
4453;DHT22;2239;48.152;11.584;2023-04-03T07:49:00;3.90;99.90
4453;DHT22;2239;48.152;11.584;2023-04-03T07:51:26;3.90;99.90
4453;DHT22;2239;48.152;11.584;2023-04-03T07:53:53;3.80;99.90
4453;DHT22;2239;48.152;11.584;2023-04-03T07:56:19;3.80;99.90
4453;DHT22;2239;48.152;11.584;2023-04-03T07:58:45;3.80;99.90
4453;DHT22;2239;48.152;11.584;2023-04-03T08:01:11;3.70;99.90
4453;DHT22;2239;48.152;11.584;2023-04-03T08:03:38;3.70;99.90
4453;DHT22;2239;48.152;11.584;2023-04-03T08:06:06;3.60;99.90
4453;DHT22;2239;48.152;11.584;2023-04-03T08:08:32;3.50;99.90
4453;DHT22;2239;48.152;11.584;2023-04-03T08:10:59;3.50;99.90
4453;DHT22;2239;48.152;11.584;2023-04-03T08:13:26;3.60;99.90
4453;DHT22;2239;48.152;11.584;2023-04-03T08:15:52;3.60;99.90
4453;DHT22;2239;48.152;11.584;2023-04-03T08:18:18;3.50;99.90
4453;DHT22;2239;48.152;11.584;2023-04-03T08:20:46;3.50;99.90
4453;DHT22;2239;48.152;11.584;2023-04-03T08:23:12;3.60;99.90
4453;DHT22;2239;48.152;11.584;2023-04-03T08:25:40;3.50;99.90
4453;DHT22;2239;48.152;11.584;2023-04-03T08:28:06;3.60;99.90
4453;DHT22;2239;48.152;11.584;2023-04-03T08:30:32;3.70;99.90
4453;DHT22;2239;48.152;11.584;2023-04-03T08:33:01;3.80;99.90
4453;DHT22;2239;48.152;11.584;2023-04-03T08:35:27;3.80;99.90
4453;DHT22;2239;48.152;11.584;2023-04-03T08:37:52;3.90;99.90
4453;DHT22;2239;48.152;11.584;2023-04-03T08:40:24;3.90;99.90
4453;DHT22;2239;48.152;11.584;2023-04-03T08:50:40;4.10;99.90
4453;DHT22;2239;48.152;11.584;2023-04-03T08:53:14;4.00;99.90
4453;DHT22;2239;48.152;11.584;2023-04-03T08:55:46;4.00;99.90
4453;DHT22;2239;48.152;11.584;2023-04-03T08:58:19;4.10;99.90
4453;DHT22;2239;48.152;11.584;2023-04-03T09:00:51;4.00;99.90
4453;DHT22;2239;48.152;11.584;2023-04-03T09:03:20;3.90;99.90
4453;DHT22;2239;48.152;11.584;2023-04-03T09:08:43;4.10;99.90
4453;DHT22;2239;48.152;11.584;2023-04-03T09:11:13;4.10;99.90
4453;DHT22;2239;48.152;11.584;2023-04-03T09:14:07;4.10;99.90
4453;DHT22;2239;48.152;11.584;2023-04-03T09:19:52;4.30;99.90
4453;DHT22;2239;48.152;11.584;2023-04-03T09:22:27;4.30;99.90
4453;DHT22;2239;48.152;11.584;2023-04-03T09:25:10;4.40;99.90
4453;DHT22;2239;48.152;11.584;2023-04-03T09:27:37;4.60;99.90
4453;DHT22;2239;48.152;11.584;2023-04-03T09:30:03;4.60;99.90
4453;DHT22;2239;48.152;11.584;2023-04-03T09:34:58;4.70;99.90
4453;DHT22;2239;48.152;11.584;2023-04-03T09:37:41;4.70;99.90
4453;DHT22;2239;48.152;11.584;2023-04-03T09:43:01;4.70;99.90
4453;DHT22;2239;48.152;11.584;2023-04-03T09:50:38;4.50;99.90
4453;DHT22;2239;48.152;11.584;2023-04-03T09:53:06;4.50;99.90
4453;DHT22;2239;48.152;11.584;2023-04-03T09:55:34;4.60;99.90
4453;DHT22;2239;48.152;11.584;2023-04-03T09:58:25;4.80;99.90
4453;DHT22;2239;48.152;11.584;2023-04-03T10:00:55;5.00;99.90
4453;DHT22;2239;48.152;11.584;2023-04-03T10:03:31;5.10;99.90
4453;DHT22;2239;48.152;11.584;2023-04-03T10:05:58;5.20;99.90
4453;DHT22;2239;48.152;11.584;2023-04-03T10:08:34;5.10;99.90
4453;DHT22;2239;48.152;11.584;2023-04-03T10:11:17;4.80;99.90
4453;DHT22;2239;48.152;11.584;2023-04-03T10:14:15;4.60;99.90
4453;DHT22;2239;48.152;11.584;2023-04-03T10:16:48;4.50;99.90
4453;DHT22;2239;48.152;11.584;2023-04-03T10:22:20;4.30;99.90
4453;DHT22;2239;48.152;11.584;2023-04-03T10:30:42;4.40;99.90
4453;DHT22;2239;48.152;11.584;2023-04-03T10:33:22;4.40;99.90
4453;DHT22;2239;48.152;11.584;2023-04-03T10:36:33;4.40;99.90
4453;DHT22;2239;48.152;11.584;2023-04-03T10:39:11;4.20;99.90
4453;DHT22;2239;48.152;11.584;2023-04-03T10:42:03;4.10;99.90
4453;DHT22;2239;48.152;11.584;2023-04-03T10:47:20;3.90;99.90
4453;DHT22;2239;48.152;11.584;2023-04-03T10:50:01;3.80;99.90
4453;DHT22;2239;48.152;11.584;2023-04-03T10:52:44;3.70;99.90
4453;DHT22;2239;48.152;11.584;2023-04-03T10:55:31;3.60;99.90
4453;DHT22;2239;48.152;11.584;2023-04-03T10:58:06;3.60;99.90
4453;DHT22;2239;48.152;11.584;2023-04-03T11:00:39;3.60;99.90
4453;DHT22;2239;48.152;11.584;2023-04-03T11:03:13;3.50;99.90
4453;DHT22;2239;48.152;11.584;2023-04-03T11:05:47;3.50;99.90
4453;DHT22;2239;48.152;11.584;2023-04-03T11:10:52;3.50;99.90
4453;DHT22;2239;48.152;11.584;2023-04-03T11:15:55;3.60;99.90
4453;DHT22;2239;48.152;11.584;2023-04-03T11:18:47;3.80;99.90
4453;DHT22;2239;48.152;11.584;2023-04-03T11:21:20;3.90;99.90
4453;DHT22;2239;48.152;11.584;2023-04-03T11:23:47;3.90;99.90
4453;DHT22;2239;48.152;11.584;2023-04-03T11:26:22;4.00;99.90
4453;DHT22;2239;48.152;11.584;2023-04-03T11:29:08;4.10;99.90
4453;DHT22;2239;48.152;11.584;2023-04-03T11:34:42;4.30;99.90
4453;DHT22;2239;48.152;11.584;2023-04-03T11:40:36;4.50;99.90
4453;DHT22;2239;48.152;11.584;2023-04-03T11:43:02;4.50;99.90
4453;DHT22;2239;48.152;11.584;2023-04-03T11:53:54;5.00;97.70
4453;DHT22;2239;48.152;11.584;2023-04-03T12:01:46;5.10;95.50
4453;DHT22;2239;48.152;11.584;2023-04-03T12:04:13;5.10;95.30
4453;DHT22;2239;48.152;11.584;2023-04-03T12:09:32;5.40;95.20
4453;DHT22;2239;48.152;11.584;2023-04-03T12:12:01;5.50;94.60
4453;DHT22;2239;48.152;11.584;2023-04-03T12:14:28;5.50;93.70
4453;DHT22;2239;48.152;11.584;2023-04-03T12:16:55;5.60;93.60
4453;DHT22;2239;48.152;11.584;2023-04-03T12:19:34;5.60;93.10
4453;DHT22;2239;48.152;11.584;2023-04-03T12:24:28;5.80;93.00
4453;DHT22;2239;48.152;11.584;2023-04-03T12:32:22;5.90;91.90
4453;DHT22;2239;48.152;11.584;2023-04-03T12:38:11;6.00;91.40
4453;DHT22;2239;48.152;11.584;2023-04-03T12:40:47;6.10;90.70
4453;DHT22;2239;48.152;11.584;2023-04-03T12:51:18;6.50;88.90
4453;DHT22;2239;48.152;11.584;2023-04-03T12:53:44;6.50;88.90
4453;DHT22;2239;48.152;11.584;2023-04-03T12:56:25;6.50;89.60
4453;DHT22;2239;48.152;11.584;2023-04-03T12:58:54;6.50;88.60
4453;DHT22;2239;48.152;11.584;2023-04-03T13:01:24;6.40;88.50
4453;DHT22;2239;48.152;11.584;2023-04-03T13:03:55;6.40;88.60
4453;DHT22;2239;48.152;11.584;2023-04-03T13:06:32;6.30;88.70
4453;DHT22;2239;48.152;11.584;2023-04-03T13:09:01;6.20;86.20
4453;DHT22;2239;48.152;11.584;2023-04-03T13:11:38;6.20;84.10
4453;DHT22;2239;48.152;11.584;2023-04-03T13:14:16;6.50;82.90
4453;DHT22;2239;48.152;11.584;2023-04-03T13:17:12;6.80;81.00
4453;DHT22;2239;48.152;11.584;2023-04-03T13:19:39;6.90;81.00
4453;DHT22;2239;48.152;11.584;2023-04-03T13:22:08;7.40;82.10
4453;DHT22;2239;48.152;11.584;2023-04-03T13:24:38;8.10;78.80
4453;DHT22;2239;48.152;11.584;2023-04-03T13:27:04;8.00;77.30
4453;DHT22;2239;48.152;11.584;2023-04-03T13:29:34;7.80;75.70
4453;DHT22;2239;48.152;11.584;2023-04-03T13:32:02;7.60;74.40
4453;DHT22;2239;48.152;11.584;2023-04-03T13:34:38;7.10;74.70
4453;DHT22;2239;48.152;11.584;2023-04-03T13:37:06;6.80;75.90
4453;DHT22;2239;48.152;11.584;2023-04-03T13:39:35;6.50;77.10
4453;DHT22;2239;48.152;11.584;2023-04-03T13:42:24;6.30;79.40
4453;DHT22;2239;48.152;11.584;2023-04-03T13:45:25;6.10;81.10
4453;DHT22;2239;48.152;11.584;2023-04-03T13:48:08;6.10;82.00
4453;DHT22;2239;48.152;11.584;2023-04-03T13:50:51;6.00;82.70
4453;DHT22;2239;48.152;11.584;2023-04-03T13:53:17;6.00;82.20
4453;DHT22;2239;48.152;11.584;2023-04-03T13:58:25;6.00;81.90
4453;DHT22;2239;48.152;11.584;2023-04-03T14:03:31;6.00;80.60
4453;DHT22;2239;48.152;11.584;2023-04-03T14:05:58;6.00;79.00
4453;DHT22;2239;48.152;11.584;2023-04-03T14:08:25;6.00;79.00
4453;DHT22;2239;48.152;11.584;2023-04-03T14:10:51;6.00;79.70
4453;DHT22;2239;48.152;11.584;2023-04-03T14:13:18;6.10;78.30
4453;DHT22;2239;48.152;11.584;2023-04-03T14:15:46;6.10;78.70
4453;DHT22;2239;48.152;11.584;2023-04-03T14:18:16;6.30;78.40
4453;DHT22;2239;48.152;11.584;2023-04-03T14:20:43;6.40;79.10
4453;DHT22;2239;48.152;11.584;2023-04-03T14:23:09;6.70;79.00
4453;DHT22;2239;48.152;11.584;2023-04-03T14:25:36;7.00;77.00
4453;DHT22;2239;48.152;11.584;2023-04-03T14:28:17;7.10;76.20
4453;DHT22;2239;48.152;11.584;2023-04-03T14:30:43;7.20;75.50
4453;DHT22;2239;48.152;11.584;2023-04-03T14:33:13;7.40;75.50
4453;DHT22;2239;48.152;11.584;2023-04-03T14:35:39;7.50;72.50
4453;DHT22;2239;48.152;11.584;2023-04-03T14:38:23;7.70;73.50
4453;DHT22;2239;48.152;11.584;2023-04-03T14:40:50;7.70;72.90
4453;DHT22;2239;48.152;11.584;2023-04-03T14:43:16;7.70;70.50
4453;DHT22;2239;48.152;11.584;2023-04-03T14:45:41;7.60;71.30
4453;DHT22;2239;48.152;11.584;2023-04-03T14:48:15;7.30;69.90
4453;DHT22;2239;48.152;11.584;2023-04-03T14:50:41;7.20;69.60
4453;DHT22;2239;48.152;11.584;2023-04-03T14:53:07;7.00;71.10
4453;DHT22;2239;48.152;11.584;2023-04-03T14:55:33;6.90;71.90
4453;DHT22;2239;48.152;11.584;2023-04-03T14:58:00;6.80;70.10
4453;DHT22;2239;48.152;11.584;2023-04-03T15:00:27;6.80;69.80
4453;DHT22;2239;48.152;11.584;2023-04-03T15:02:52;6.60;70.10
4453;DHT22;2239;48.152;11.584;2023-04-03T15:05:18;6.40;69.70
4453;DHT22;2239;48.152;11.584;2023-04-03T15:07:52;6.20;69.20
4453;DHT22;2239;48.152;11.584;2023-04-03T15:10:25;6.10;69.00
4453;DHT22;2239;48.152;11.584;2023-04-03T15:12:51;6.00;68.90
4453;DHT22;2239;48.152;11.584;2023-04-03T15:15:18;5.80;68.30
4453;DHT22;2239;48.152;11.584;2023-04-03T15:17:46;5.80;68.70
4453;DHT22;2239;48.152;11.584;2023-04-03T15:20:15;5.80;68.50
4453;DHT22;2239;48.152;11.584;2023-04-03T15:22:41;5.80;67.00
4453;DHT22;2239;48.152;11.584;2023-04-03T15:25:08;5.80;67.30
4453;DHT22;2239;48.152;11.584;2023-04-03T15:27:34;5.80;67.30
4453;DHT22;2239;48.152;11.584;2023-04-03T15:29:59;5.90;67.00
4453;DHT22;2239;48.152;11.584;2023-04-03T15:32:25;5.90;68.90
4453;DHT22;2239;48.152;11.584;2023-04-03T15:34:51;6.00;67.90
4453;DHT22;2239;48.152;11.584;2023-04-03T15:37:16;5.90;66.50
4453;DHT22;2239;48.152;11.584;2023-04-03T15:39:42;5.80;66.70
4453;DHT22;2239;48.152;11.584;2023-04-03T15:42:07;5.70;66.80
4453;DHT22;2239;48.152;11.584;2023-04-03T15:44:34;5.70;65.70
4453;DHT22;2239;48.152;11.584;2023-04-03T15:47:00;5.70;65.10
4453;DHT22;2239;48.152;11.584;2023-04-03T15:49:27;5.70;63.70
4453;DHT22;2239;48.152;11.584;2023-04-03T15:51:52;5.70;62.10
4453;DHT22;2239;48.152;11.584;2023-04-03T15:54:18;5.60;62.30
4453;DHT22;2239;48.152;11.584;2023-04-03T15:56:44;5.70;62.80
4453;DHT22;2239;48.152;11.584;2023-04-03T15:59:09;5.70;62.60
4453;DHT22;2239;48.152;11.584;2023-04-03T16:01:36;5.70;61.90
4453;DHT22;2239;48.152;11.584;2023-04-03T16:04:02;5.60;63.20
4453;DHT22;2239;48.152;11.584;2023-04-03T16:06:28;5.40;65.00
4453;DHT22;2239;48.152;11.584;2023-04-03T16:08:55;5.40;66.30
4453;DHT22;2239;48.152;11.584;2023-04-03T16:11:24;5.30;66.40
4453;DHT22;2239;48.152;11.584;2023-04-03T16:13:50;5.30;67.30
4453;DHT22;2239;48.152;11.584;2023-04-03T16:16:15;5.20;67.30
4453;DHT22;2239;48.152;11.584;2023-04-03T16:18:41;5.30;67.70
4453;DHT22;2239;48.152;11.584;2023-04-03T16:21:08;5.20;67.10
4453;DHT22;2239;48.152;11.584;2023-04-03T16:23:34;5.20;67.10
4453;DHT22;2239;48.152;11.584;2023-04-03T16:26:00;5.10;67.20
4453;DHT22;2239;48.152;11.584;2023-04-03T16:28:25;5.00;66.80
4453;DHT22;2239;48.152;11.584;2023-04-03T16:30:51;5.00;66.70
4453;DHT22;2239;48.152;11.584;2023-04-03T16:33:17;4.90;67.10
4453;DHT22;2239;48.152;11.584;2023-04-03T16:35:43;4.90;67.00
4453;DHT22;2239;48.152;11.584;2023-04-03T16:38:09;4.90;66.90
4453;DHT22;2239;48.152;11.584;2023-04-03T16:40:35;4.90;66.20
4453;DHT22;2239;48.152;11.584;2023-04-03T16:43:01;4.80;65.70
4453;DHT22;2239;48.152;11.584;2023-04-03T16:45:27;4.80;65.90
4453;DHT22;2239;48.152;11.584;2023-04-03T16:47:53;4.70;65.60
4453;DHT22;2239;48.152;11.584;2023-04-03T16:50:19;4.70;65.80
4453;DHT22;2239;48.152;11.584;2023-04-03T16:52:46;4.80;66.60
4453;DHT22;2239;48.152;11.584;2023-04-03T16:55:13;4.90;65.70
4453;DHT22;2239;48.152;11.584;2023-04-03T16:57:39;4.80;66.00
4453;DHT22;2239;48.152;11.584;2023-04-03T17:00:06;4.80;66.20
4453;DHT22;2239;48.152;11.584;2023-04-03T17:02:33;4.80;67.50
4453;DHT22;2239;48.152;11.584;2023-04-03T17:04:58;4.70;68.50
4453;DHT22;2239;48.152;11.584;2023-04-03T17:07:25;4.70;69.50
4453;DHT22;2239;48.152;11.584;2023-04-03T17:09:51;4.60;69.40
4453;DHT22;2239;48.152;11.584;2023-04-03T17:12:20;4.60;70.10
4453;DHT22;2239;48.152;11.584;2023-04-03T17:14:46;4.50;69.90
4453;DHT22;2239;48.152;11.584;2023-04-03T17:17:15;4.60;70.00
4453;DHT22;2239;48.152;11.584;2023-04-03T17:19:44;4.60;70.50
4453;DHT22;2239;48.152;11.584;2023-04-03T17:22:10;4.60;71.10
4453;DHT22;2239;48.152;11.584;2023-04-03T17:24:35;4.60;71.40
4453;DHT22;2239;48.152;11.584;2023-04-03T17:27:01;4.50;72.30
4453;DHT22;2239;48.152;11.584;2023-04-03T17:29:27;4.40;73.20
4453;DHT22;2239;48.152;11.584;2023-04-03T17:31:53;4.50;73.80
4453;DHT22;2239;48.152;11.584;2023-04-03T17:34:18;4.40;74.00
4453;DHT22;2239;48.152;11.584;2023-04-03T17:36:44;4.30;74.80
4453;DHT22;2239;48.152;11.584;2023-04-03T17:39:10;4.30;76.00
4453;DHT22;2239;48.152;11.584;2023-04-03T17:41:35;4.30;76.90
4453;DHT22;2239;48.152;11.584;2023-04-03T17:44:01;4.20;76.60
4453;DHT22;2239;48.152;11.584;2023-04-03T17:46:27;4.10;76.80